Time;durP1;ratioP1;P1;durP2;ratioP2;P2;SDS_P1;SDS_P2;PMS_P1;PMS_P2;Temp;Humidity;BMP_temperature;BMP_pressure;BME280_temperature;BME280_humidity;BME280_pressure;Samples;Min_cycle;Max_cycle;Signal;HPM_P1;HPM_P2
2023/09/20 00:01:56;;;;;;;5.00;1.42;;;;;;;19.81;80.71;100084.69;8300765;28;20273;-65
2023/09/20 00:05:56;;;;;;;5.68;1.30;;;;;;;19.82;80.77;100097.38;8271252;28;20038;-66
2023/09/20 00:09:57;;;;;;;3.45;1.08;;;;;;;19.68;81.60;100092.91;8305895;28;20037;-65
2023/09/20 00:13:58;;;;;;;4.88;1.20;;;;;;;19.55;82.44;100085.53;8304345;28;20533;-65
2023/09/20 00:17:58;;;;;;;4.60;1.13;;;;;;;19.51;82.80;100083.41;8303697;28;20148;-63
2023/09/20 00:21:59;;;;;;;6.05;1.40;;;;;;;19.35;83.84;100082.75;8290587;28;20065;-62
2023/09/20 00:26:01;;;;;;;5.15;1.52;;;;;;;19.41;83.68;100073.69;8301205;28;20042;-60
2023/09/20 00:30:03;;;;;;;7.05;1.80;;;;;;;19.38;83.78;100076.84;8246523;28;20258;-63
2023/09/20 00:34:03;;;;;;;5.93;1.48;;;;;;;19.41;83.68;100089.28;8301499;28;20042;-59
2023/09/20 00:38:03;;;;;;;3.88;1.35;;;;;;;19.39;83.79;100073.06;8272048;28;20033;-62
2023/09/20 00:42:04;;;;;;;7.85;1.40;;;;;;;19.40;83.65;100080.22;8277919;28;20128;-58
2023/09/20 00:46:07;;;;;;;4.43;1.48;;;;;;;19.42;84.17;100089.09;8330403;28;20535;-59
2023/09/20 00:50:11;;;;;;;7.07;1.77;;;;;;;19.40;84.72;100085.69;8308800;28;20041;-58
2023/09/20 00:54:13;;;;;;;7.00;1.35;;;;;;;19.49;84.15;100072.66;8309016;28;20270;-59
2023/09/20 00:58:15;;;;;;;5.75;1.63;;;;;;;19.48;84.50;100075.59;8302174;28;20120;-62
2023/09/20 01:02:15;;;;;;;6.07;1.63;;;;;;;19.53;84.47;100079.41;8286803;28;20120;-59
2023/09/20 01:06:17;;;;;;;5.90;1.33;;;;;;;19.57;84.18;100068.88;8307474;28;20041;-59
2023/09/20 01:10:25;;;;;;;7.18;1.50;;;;;;;19.69;84.00;100072.66;8277197;28;20299;-59
2023/09/20 01:14:27;;;;;;;6.97;1.42;;;;;;;19.67;84.12;100063.81;8300010;28;20479;-59
2023/09/20 01:18:28;;;;;;;7.45;1.70;;;;;;;19.82;83.66;100072.69;8307457;28;20527;-59
2023/09/20 01:22:28;;;;;;;3.15;1.38;;;;;;;19.80;83.86;100052.84;8311102;28;20053;-63
2023/09/20 01:26:29;;;;;;;2.80;1.00;;;;;;;19.82;83.90;100056.22;8306527;28;20040;-60
2023/09/20 01:30:32;;;;;;;10.80;1.67;;;;;;;19.71;84.37;100059.59;8249830;28;20255;-61
2023/09/20 01:34:34;;;;;;;7.50;1.50;;;;;;;19.64;84.97;100053.25;8256595;28;20049;-62
2023/09/20 01:38:34;;;;;;;6.15;1.42;;;;;;;19.73;84.75;100057.47;8284806;28;20037;-59
2023/09/20 01:42:36;;;;;;;7.97;1.60;;;;;;;19.65;85.05;100050.31;8307782;28;20396;-59
2023/09/20 01:46:36;;;;;;;4.15;1.30;;;;;;;19.62;85.11;100050.72;8260698;28;20053;-61
2023/09/20 01:50:37;;;;;;;10.90;1.67;;;;;;;19.37;86.50;100044.97;8309316;28;20045;-60
2023/09/20 01:54:38;;;;;;;4.03;1.20;;;;;;;19.14;88.07;100041.75;8306989;28;20034;-59
2023/09/20 01:58:38;;;;;;;5.38;1.83;;;;;;;19.00;89.23;100034.53;8303705;28;20033;-60
2023/09/20 02:02:39;;;;;;;7.60;1.35;;;;;;;18.84;90.03;100034.06;8266027;28;20041;-61
2023/09/20 02:06:39;;;;;;;4.25;1.70;;;;;;;18.85;90.29;100031.13;8251622;28;20403;-60
2023/09/20 02:10:41;;;;;;;4.65;1.60;;;;;;;18.82;90.44;100037.00;8254709;28;20444;-61
2023/09/20 02:14:42;;;;;;;5.20;1.40;;;;;;;18.76;90.82;100042.47;8263116;28;20033;-58
2023/09/20 02:18:44;;;;;;;6.03;1.35;;;;;;;18.69;91.08;100031.50;8275841;28;20045;-61
2023/09/20 02:22:45;;;;;;;2.97;1.33;;;;;;;18.69;91.58;100026.00;8265538;28;20115;-57
2023/09/20 02:26:48;;;;;;;6.38;1.40;;;;;;;18.67;91.88;100021.78;8305865;28;20038;-63
2023/09/20 02:30:51;;;;;;;5.65;1.50;;;;;;;18.61;92.31;100023.47;8306080;28;20033;-63
2023/09/20 02:34:51;;;;;;;4.35;1.30;;;;;;;18.46;93.38;100019.16;8269135;28;20042;-61
2023/09/20 02:38:52;;;;;;;3.40;1.20;;;;;;;18.47;92.89;100010.75;8298645;28;20038;-63
2023/09/20 02:42:54;;;;;;;6.03;1.63;;;;;;;18.52;92.53;100018.34;8307635;28;20042;-62
2023/09/20 02:46:55;;;;;;;3.05;1.60;;;;;;;18.53;91.93;100015.41;8304309;28;20587;-62
2023/09/20 02:50:59;;;;;;;5.03;1.40;;;;;;;18.50;92.37;100014.97;8268400;28;20739;-61
2023/09/20 02:55:03;;;;;;;;;;;;;;;18.37;93.35;100003.97;8296142;28;20498;-62
2023/09/20 02:59:07;;;;;;;4.25;1.67;;;;;;;18.30;94.02;100014.00;8305204;28;20295;-63
2023/09/20 03:03:08;;;;;;;3.63;1.52;;;;;;;18.42;92.92;100013.25;8298072;28;20047;-63
2023/09/20 03:07:09;;;;;;;4.45;1.88;;;;;;;18.36;93.03;100000.34;8301295;28;20200;-62
2023/09/20 03:11:18;;;;;;;6.60;1.55;;;;;;;18.32;93.09;99995.47;8300814;28;20046;-63
2023/09/20 03:15:22;;;;;;;3.63;1.42;;;;;;;18.25;93.29;99997.34;8309606;28;20051;-65
2023/09/20 03:19:23;;;;;;;4.65;1.50;;;;;;;18.17;93.98;99995.59;8307350;28;20099;-65
2023/09/20 03:23:24;;;;;;;5.35;1.80;;;;;;;18.17;94.09;99983.84;8306388;28;20074;-65
2023/09/20 03:27:25;;;;;;;5.82;1.70;;;;;;;18.09;94.54;99981.25;8282727;28;20045;-65
2023/09/20 03:31:26;;;;;;;6.65;1.58;;;;;;;18.07;94.85;99992.41;8305694;28;20515;-65
2023/09/20 03:35:28;;;;;;;3.05;1.30;;;;;;;18.03;94.93;99974.72;8306744;28;20141;-64
2023/09/20 03:39:30;;;;;;;2.20;1.27;;;;;;;18.01;94.99;99976.78;8307048;28;20052;-63
2023/09/20 03:43:31;;;;;;;6.03;1.60;;;;;;;17.86;95.77;99978.78;8308140;28;20087;-63
2023/09/20 03:47:32;;;;;;;6.07;1.58;;;;;;;17.79;96.83;99982.53;8248859;28;20221;-62
2023/09/20 03:51:33;;;;;;;3.53;1.35;;;;;;;17.96;96.36;99984.75;8253525;28;20030;-62
2023/09/20 03:55:34;;;;;;;3.30;1.35;;;;;;;18.12;95.55;99976.25;8306548;28;20041;-64
2023/09/20 03:59:35;;;;;;;5.75;1.80;;;;;;;18.28;94.72;99966.81;8321433;28;20041;-63
2023/09/20 04:03:35;;;;;;;3.28;1.23;;;;;;;18.43;93.75;99957.47;8264940;28;20061;-63
2023/09/20 04:07:36;;;;;;;2.85;1.10;;;;;;;18.19;94.31;99968.03;8303664;28;20030;-62
2023/09/20 04:11:39;;;;;;;3.17;1.10;;;;;;;18.00;94.94;99958.69;8305927;28;20556;-63
2023/09/20 04:15:42;;;;;;;5.93;1.35;;;;;;;17.78;96.09;99943.38;8290441;28;20179;-63
2023/09/20 04:19:43;;;;;;;2.97;1.40;;;;;;;17.67;97.04;99952.16;8298464;28;20068;-63
2023/09/20 04:23:43;;;;;;;4.40;1.40;;;;;;;17.44;98.69;99940.63;8271269;28;20037;-62
2023/09/20 04:27:46;;;;;;;3.53;1.50;;;;;;;17.44;99.39;99935.16;8261267;28;20038;-57
2023/09/20 04:31:49;;;;;;;5.40;1.77;;;;;;;17.43;99.73;99933.47;8312246;28;20381;-59
2023/09/20 04:35:52;;;;;;;2.97;1.70;;;;;;;17.51;99.64;99941.53;8307398;28;20411;-63
2023/09/20 04:39:57;;;;;;;4.53;1.63;;;;;;;17.59;99.16;99933.16;8306985;28;20045;-63
2023/09/20 04:43:58;;;;;;;6.78;1.60;;;;;;;17.69;98.44;99922.75;8295768;28;20065;-63
2023/09/20 04:47:58;;;;;;;5.78;1.85;;;;;;;17.67;98.83;99934.91;8311296;28;20052;-60
2023/09/20 04:52:00;;;;;;;7.82;1.50;;;;;;;17.68;98.69;99926.50;8306593;28;20033;-58
2023/09/20 04:56:01;;;;;;;4.00;1.50;;;;;;;17.50;99.74;99923.44;8306821;28;20399;-58
2023/09/20 05:00:14;;;;;;;3.50;1.63;;;;;;;17.38;100.00;99927.72;8303742;28;20133;-58
2023/09/20 05:04:15;;;;;;;5.13;1.77;;;;;;;17.19;100.00;99922.94;8304970;28;20077;-58
2023/09/20 05:08:18;;;;;;;6.80;2.00;;;;;;;17.05;100.00;99921.16;8308421;28;20559;-59
2023/09/20 05:12:19;;;;;;;8.15;1.70;;;;;;;17.07;100.00;99921.78;8307551;28;20495;-59
2023/09/20 05:16:20;;;;;;;4.18;1.35;;;;;;;17.04;100.00;99928.50;8309064;28;20088;-58
2023/09/20 05:20:21;;;;;;;4.15;1.45;;;;;;;17.05;100.00;99929.34;8310790;28;20063;-59
2023/09/20 05:24:22;;;;;;;4.63;2.15;;;;;;;17.22;100.00;99922.56;8307397;28;20034;-60
2023/09/20 05:28:25;;;;;;;5.45;1.38;;;;;;;17.30;100.00;99911.50;8304701;28;20045;-59
2023/09/20 05:32:25;;;;;;;5.35;1.40;;;;;;;17.48;100.00;99920.06;8293721;28;20061;-59
2023/09/20 05:36:27;;;;;;;8.90;2.92;;;;;;;17.63;99.19;99907.97;8299197;28;20037;-59
2023/09/20 05:40:28;;;;;;;5.35;1.55;;;;;;;17.58;98.84;99909.63;8307272;28;20045;-58
2023/09/20 05:44:30;;;;;;;4.20;1.95;;;;;;;17.48;99.57;99914.63;8308908;28;20564;-60
2023/09/20 05:48:30;;;;;;;8.20;1.55;;;;;;;17.51;99.98;99904.09;8306816;28;20096;-58
2023/09/20 05:52:32;;;;;;;9.70;1.90;;;;;;;17.74;99.77;99898.38;8311422;28;20641;-59
2023/09/20 05:56:32;;;;;;;3.67;1.73;;;;;;;17.81;98.85;99901.97;8308984;28;20043;-65
2023/09/20 06:00:35;;;;;;;4.90;1.52;;;;;;;18.03;97.32;99897.25;8308001;28;20042;-66
2023/09/20 06:04:38;;;;;;;2.85;1.40;;;;;;;18.01;97.72;99900.19;8310469;28;20562;-65
2023/09/20 06:08:38;;;;;;;5.35;1.83;;;;;;;17.99;97.30;99891.34;8305519;28;20490;-64
2023/09/20 06:12:39;;;;;;;4.20;1.35;;;;;;;18.06;97.04;99911.38;8311425;28;20406;-64
2023/09/20 06:16:39;;;;;;;3.47;1.73;;;;;;;18.07;97.64;99902.13;8307562;28;20057;-63
2023/09/20 06:20:45;;;;;;;3.28;1.23;;;;;;;18.11;97.23;99900.66;8309835;28;20499;-64
2023/09/20 06:24:46;;;;;;;4.25;1.83;;;;;;;18.19;96.74;99903.22;8310357;28;20057;-63
2023/09/20 06:28:49;;;;;;;2.13;1.23;;;;;;;18.31;96.62;99907.06;8307046;28;20045;-58
2023/09/20 06:32:50;;;;;;;7.55;1.60;;;;;;;18.28;96.76;99896.53;8307345;28;20041;-59
2023/09/20 06:36:51;;;;;;;4.82;1.95;;;;;;;18.36;96.92;99899.06;8310662;28;20061;-59
2023/09/20 06:40:53;;;;;;;3.83;1.52;;;;;;;18.48;96.15;99902.09;8308922;28;20049;-60
2023/09/20 06:44:55;;;;;;;4.97;1.40;;;;;;;18.46;96.51;99916.00;8306711;28;20490;-59
2023/09/20 06:48:57;;;;;;;3.10;1.10;;;;;;;18.50;96.47;99900.84;8310198;28;20037;-65
2023/09/20 06:52:59;;;;;;;5.32;1.40;;;;;;;18.40;97.04;99916.81;8303642;28;20567;-65
2023/09/20 06:57:03;;;;;;;7.40;1.98;;;;;;;18.35;98.21;99923.91;8307009;28;20042;-65
2023/09/20 07:01:04;;;;;;;4.57;1.53;;;;;;;18.43;98.09;99921.88;8307177;28;20064;-65
2023/09/20 07:05:05;;;;;;;2.00;1.02;;;;;;;18.61;97.42;99908.47;8291231;28;20270;-65
2023/09/20 07:09:05;;;;;;;3.67;1.55;;;;;;;18.59;97.52;99905.06;8274427;28;20044;-60
2023/09/20 07:13:07;;;;;;;2.92;1.40;;;;;;;18.74;97.36;99903.00;8276419;28;20043;-59
2023/09/20 07:17:08;;;;;;;6.63;1.65;;;;;;;18.82;97.06;99899.22;8274926;28;20073;-59
2023/09/20 07:21:08;;;;;;;5.20;1.30;;;;;;;18.89;97.25;99898.19;8306867;28;20049;-62
2023/09/20 07:25:16;;;;;;;3.85;1.95;;;;;;;19.07;95.90;99909.38;8309607;28;20399;-60
2023/09/20 07:29:18;;;;;;;3.80;1.30;;;;;;;19.11;96.12;99910.63;8304818;28;20134;-59
2023/09/20 07:33:23;;;;;;;5.18;1.50;;;;;;;19.19;96.56;99902.19;8306508;28;20053;-59
2023/09/20 07:37:25;;;;;;;3.83;1.30;;;;;;;19.42;95.44;99907.28;8306523;28;20041;-59
2023/09/20 07:41:26;;;;;;;2.72;1.45;;;;;;;19.73;93.11;99895.63;8307448;28;20581;-59
2023/09/20 07:45:27;;;;;;;3.40;1.10;;;;;;;19.85;92.53;99896.66;8308920;28;20478;-60
2023/09/20 07:49:28;;;;;;;4.53;1.60;;;;;;;20.03;91.29;99907.81;8305900;28;20123;-59
2023/09/20 07:53:29;;;;;;;2.20;1.20;;;;;;;20.18;90.86;99897.41;8308039;28;20046;-61
2023/09/20 07:57:30;;;;;;;2.85;1.20;;;;;;;20.40;89.15;99901.56;8324023;28;20037;-59
2023/09/20 08:01:31;;;;;;;5.22;1.35;;;;;;;20.54;88.28;99903.16;8312631;28;20395;-59
2023/09/20 08:05:33;;;;;;;2.85;1.33;;;;;;;20.64;86.57;99898.03;8307840;28;20049;-59
2023/09/20 08:09:34;;;;;;;3.42;1.48;;;;;;;20.91;85.96;99911.38;8314284;28;20038;-59
2023/09/20 08:13:34;;;;;;;1.77;0.90;;;;;;;20.97;85.44;99913.28;8313363;28;20060;-60
2023/09/20 09:01:01;;;;;;;2.42;0.60;;;;;;;22.97;76.84;99918.72;8311452;28;20042;-59
2023/09/20 09:05:04;;;;;;;1.60;0.57;;;;;;;23.16;75.08;99914.84;8311536;28;20384;-59
2023/09/20 09:09:04;;;;;;;4.38;0.90;;;;;;;23.76;74.25;99918.28;8309602;28;20478;-59
2023/09/20 09:13:05;;;;;;;2.17;0.80;;;;;;;24.29;70.61;99926.41;8310664;28;20518;-59
2023/09/20 09:17:07;;;;;;;1.20;0.63;;;;;;;24.86;67.90;99914.34;8306639;28;20117;-59
2023/09/20 09:21:07;;;;;;;3.50;0.90;;;;;;;25.58;64.88;99927.28;8311968;28;20534;-60
2023/09/20 09:25:11;;;;;;;2.10;0.52;;;;;;;25.97;63.82;99926.25;8311692;28;20318;-59
2023/09/20 09:29:19;;;;;;;1.63;0.55;;;;;;;25.24;65.36;99938.56;8297201;28;20030;-65
2023/09/20 09:33:19;;;;;;;3.40;0.93;;;;;;;24.71;67.03;99931.50;8308036;28;20052;-63
2023/09/20 09:37:19;;;;;;;4.32;0.60;;;;;;;26.17;62.75;99926.56;8305932;28;20424;-65
2023/09/20 09:41:20;;;;;;;2.28;0.57;;;;;;;26.87;61.16;99939.69;8308103;28;20065;-65
2023/09/20 09:45:36;;;;;;;2.05;0.43;;;;;;;27.77;59.37;99933.06;8308509;28;20041;-65
2023/09/20 09:49:37;;;;;;;2.63;0.70;;;;;;;27.53;58.35;99942.06;8309066;28;20088;-65
2023/09/20 09:53:41;;;;;;;2.42;0.60;;;;;;;26.43;60.34;99941.59;8307796;28;20033;-65
2023/09/20 09:57:43;;;;;;;5.38;0.70;;;;;;;26.53;60.97;99937.03;8304774;28;20103;-65
2023/09/20 10:01:45;;;;;;;1.73;0.45;;;;;;;27.55;59.43;99923.16;8305302;28;20045;-65
2023/09/20 10:05:47;;;;;;;2.10;0.70;;;;;;;28.04;57.73;99927.44;8298209;28;20072;-63
2023/09/20 10:09:50;;;;;;;1.10;0.50;;;;;;;29.51;54.40;99934.13;8322690;28;20041;-65
2023/09/20 10:13:52;;;;;;;6.20;0.70;;;;;;;29.61;52.82;99922.16;8306771;28;20040;-65
2023/09/20 10:17:55;;;;;;;3.78;1.05;;;;;;;30.33;51.75;99926.28;8305958;28;20476;-59
2023/09/20 10:22:09;;;;;;;2.17;0.40;;;;;;;31.02;50.32;99911.47;8307207;28;20124;-60
2023/09/20 10:26:14;;;;;;;2.33;0.60;;;;;;;28.89;53.00;99915.91;8301506;28;20128;-60
2023/09/20 10:30:14;;;;;;;0.90;0.60;;;;;;;27.49;56.07;99918.66;8303621;28;20034;-61
2023/09/20 10:34:19;;;;;;;2.33;0.50;;;;;;;26.80;57.87;99903.81;8289768;28;20495;-59
2023/09/20 10:38:22;;;;;;;3.30;0.57;;;;;;;26.65;58.44;99896.16;8304666;28;20409;-60
2023/09/20 10:42:23;;;;;;;3.25;0.70;;;;;;;26.35;59.38;99889.38;8306158;28;20049;-59
2023/09/20 10:46:24;;;;;;;2.72;0.60;;;;;;;27.19;57.78;99896.16;8306609;28;20045;-59
2023/09/20 10:50:45;;;;;;;1.65;0.55;;;;;;;28.51;55.71;99892.13;8304138;28;20429;-59
2023/09/20 10:54:46;;;;;;;2.55;0.80;;;;;;;29.13;53.73;99898.47;8304756;28;20645;-59
2023/09/20 10:58:48;;;;;;;4.15;0.60;;;;;;;28.53;54.54;99892.69;8309132;28;20545;-59
2023/09/20 11:02:52;;;;;;;2.22;1.00;;;;;;;27.55;57.04;99879.56;8315774;28;20099;-59
2023/09/20 11:06:54;;;;;;;2.47;0.50;;;;;;;27.64;56.67;99885.47;8304517;28;20037;-59
2023/09/20 11:10:58;;;;;;;3.00;0.80;;;;;;;27.31;58.32;99880.19;8306628;28;20037;-65
2023/09/20 11:15:01;;;;;;;2.55;0.80;;;;;;;27.05;58.79;99872.72;8305169;28;20045;-62
2023/09/20 11:19:01;;;;;;;1.45;0.70;;;;;;;26.87;58.89;99873.09;8305015;28;20034;-65
2023/09/20 11:23:02;;;;;;;5.05;0.63;;;;;;;26.61;58.38;99866.41;8303404;28;20103;-65
2023/09/20 11:27:04;;;;;;;2.50;0.63;;;;;;;26.10;58.81;99859.41;8298417;28;20045;-66
2023/09/20 11:31:04;;;;;;;2.83;0.60;;;;;;;26.21;59.46;99861.22;8302945;28;20116;-66
2023/09/20 11:35:06;;;;;;;1.85;0.90;;;;;;;26.67;58.71;99851.53;8303820;28;20041;-64
2023/09/20 11:39:07;;;;;;;2.53;0.70;;;;;;;27.84;56.23;99843.94;8305170;28;20115;-62
2023/09/20 11:43:09;;;;;;;4.53;0.70;;;;;;;30.12;52.85;99829.81;8301690;28;20073;-62
2023/09/20 11:47:12;;;;;;;3.45;0.70;;;;;;;30.50;51.76;99825.50;8304765;28;20157;-64
2023/09/20 11:51:13;;;;;;;3.03;0.60;;;;;;;29.16;53.32;99824.66;8303955;28;20057;-65
2023/09/20 11:55:15;;;;;;;2.97;0.70;;;;;;;28.77;55.10;99827.09;8303166;28;20037;-65
2023/09/20 11:59:18;;;;;;;1.58;0.75;;;;;;;27.84;56.50;99822.50;8301360;28;20116;-59
2023/09/20 12:03:18;;;;;;;2.35;0.88;;;;;;;27.26;57.96;99807.97;8299081;28;20740;-60
2023/09/20 12:07:19;;;;;;;7.50;0.98;;;;;;;27.54;56.66;99799.28;8297549;28;20137;-59
2023/09/20 12:11:20;;;;;;;2.45;0.60;;;;;;;27.54;56.32;99799.28;8303790;28;20046;-65
2023/09/20 12:15:23;;;;;;;3.20;0.82;;;;;;;27.20;57.29;99784.03;8319808;28;20064;-65
2023/09/20 12:19:23;;;;;;;2.90;1.10;;;;;;;27.27;57.22;99770.78;8302192;28;20523;-65
2023/09/20 12:23:23;;;;;;;2.65;0.93;;;;;;;27.75;56.06;99767.75;8304536;28;20410;-65
2023/09/20 12:27:24;;;;;;;3.10;1.13;;;;;;;27.64;55.51;99757.69;8303442;28;20049;-66
2023/09/20 12:31:25;;;;;;;3.20;1.48;;;;;;;27.27;56.63;99770.78;8270005;28;20044;-65
2023/09/20 12:35:26;;;;;;;3.72;1.08;;;;;;;27.33;56.04;99753.06;8289346;28;20042;-65
2023/09/20 12:39:27;;;;;;;2.55;0.90;;;;;;;26.76;56.46;99753.72;8303602;28;20049;-59
2023/09/20 12:43:28;;;;;;;6.88;1.00;;;;;;;26.44;57.83;99755.56;8298944;28;20045;-59
2023/09/20 12:47:29;;;;;;;3.75;0.98;;;;;;;26.21;57.51;99749.50;8308138;28;20080;-62
2023/09/20 12:51:29;;;;;;;6.45;1.45;;;;;;;26.23;57.90;99750.09;8311019;28;20037;-62
2023/09/20 12:55:31;;;;;;;1.33;0.98;;;;;;;26.40;58.21;99748.88;8308969;28;20033;-60
2023/09/20 12:59:31;;;;;;;1.88;0.93;;;;;;;26.59;58.38;99743.81;8305033;28;20034;-60
2023/09/20 13:03:31;;;;;;;3.17;1.13;;;;;;;26.79;58.42;99725.44;8304358;28;20045;-59
2023/09/20 13:07:32;;;;;;;3.83;1.00;;;;;;;27.03;57.83;99714.78;8302971;28;20569;-59
2023/09/20 13:11:32;;;;;;;2.33;0.90;;;;;;;27.20;57.61;99709.91;8308801;28;20045;-60
2023/09/20 13:15:33;;;;;;;3.38;1.30;;;;;;;26.77;57.39;99702.66;8308351;28;20088;-59
2023/09/20 13:19:33;;;;;;;2.78;1.02;;;;;;;26.78;58.20;99690.44;8305966;28;20163;-60
2023/09/20 13:23:34;;;;;;;4.22;1.23;;;;;;;26.60;58.39;99696.38;8308264;28;20119;-59
2023/09/20 13:27:35;;;;;;;2.78;0.80;;;;;;;26.52;58.67;99685.78;8301124;28;20065;-59
2023/09/20 13:31:38;;;;;;;3.00;1.05;;;;;;;26.52;58.99;99677.47;8288607;28;20034;-59
2023/09/20 13:35:39;;;;;;;3.75;1.08;;;;;;;26.39;59.08;99680.69;8293807;28;20033;-61
2023/09/20 13:39:42;;;;;;;3.35;0.98;;;;;;;26.38;59.31;99672.63;8303172;28;20124;-60
2023/09/20 13:43:43;;;;;;;2.90;1.23;;;;;;;26.45;58.71;99660.22;8307993;28;20180;-60
2023/09/20 13:47:47;;;;;;;4.68;1.13;;;;;;;26.65;58.62;99660.41;8295624;28;20030;-59
2023/09/20 13:51:47;;;;;;;3.50;1.00;;;;;;;26.56;58.58;99650.88;8305374;28;20038;-60
2023/09/20 13:55:48;;;;;;;2.30;0.90;;;;;;;26.89;58.94;99651.72;8295530;28;20107;-62
2023/09/20 13:59:48;;;;;;;3.95;1.20;;;;;;;27.20;56.65;99648.00;8300236;28;20045;-60
2023/09/20 14:03:49;;;;;;;2.35;0.90;;;;;;;27.03;57.10;99639.00;8302056;28;20524;-60
2023/09/20 14:07:55;;;;;;;2.88;1.08;;;;;;;27.32;56.97;99640.34;8303386;28;20471;-64
2023/09/20 14:11:55;;;;;;;2.83;1.10;;;;;;;27.46;56.21;99630.38;8303056;28;20491;-62
2023/09/20 14:15:56;;;;;;;4.78;0.93;;;;;;;27.36;55.79;99619.25;8305665;28;20458;-60
2023/09/20 14:19:56;;;;;;;1.90;0.75;;;;;;;27.30;55.71;99631.44;8303916;28;20033;-61
2023/09/20 14:23:58;;;;;;;2.08;0.88;;;;;;;27.15;55.66;99634.09;8303979;28;20038;-61
2023/09/20 14:27:59;;;;;;;3.78;1.30;;;;;;;27.12;56.03;99612.44;8302879;28;20080;-61
2023/09/20 14:31:59;;;;;;;5.53;1.25;;;;;;;27.21;57.24;99628.31;8303042;28;20072;-63
2023/09/20 14:36:01;;;;;;;2.95;0.88;;;;;;;27.23;56.42;99608.59;8300829;28;20076;-63
2023/09/20 14:40:03;;;;;;;1.85;0.70;;;;;;;27.26;56.28;99608.91;8303192;28;20061;-63
2023/09/20 14:44:03;;;;;;;2.63;0.80;;;;;;;27.14;56.77;99604.69;8306108;28;20538;-63
2023/09/20 14:48:04;;;;;;;2.92;1.17;;;;;;;27.09;56.53;99604.63;8302112;28;20436;-63
2023/09/20 14:52:04;;;;;;;2.78;0.80;;;;;;;27.06;56.95;99605.19;8301932;28;20037;-63
2023/09/20 14:56:06;;;;;;;2.80;1.00;;;;;;;26.97;57.48;99604.00;8302342;28;20049;-64
2023/09/20 15:00:16;;;;;;;3.78;1.17;;;;;;;26.83;58.15;99598.97;8299889;28;20119;-65
2023/09/20 15:04:17;;;;;;;2.40;0.70;;;;;;;26.46;58.18;99600.88;8298882;28;20100;-69
2023/09/20 15:08:20;;;;;;;4.95;1.08;;;;;;;26.46;58.98;99587.03;8294467;28;20057;-69
2023/09/20 15:12:21;;;;;;;5.03;1.20;;;;;;;26.38;58.69;99584.72;8302094;28;20090;-59
2023/09/20 15:16:21;;;;;;;2.85;0.90;;;;;;;26.48;58.58;99579.28;8299292;28;20451;-59
2023/09/20 15:20:23;;;;;;;2.05;0.60;;;;;;;26.42;59.38;99580.34;8299219;28;20424;-59
2023/09/20 15:24:24;;;;;;;3.30;0.88;;;;;;;26.46;59.66;99575.94;8323346;28;20274;-60
2023/09/20 15:28:24;;;;;;;2.72;0.98;;;;;;;26.46;59.30;99564.84;8302880;28;20075;-59
2023/09/20 15:32:25;;;;;;;1.50;0.70;;;;;;;26.51;57.46;99561.28;8300315;28;20033;-62
2023/09/20 15:36:26;;;;;;;3.25;1.20;;;;;;;26.47;58.46;99541.56;8303776;28;20438;-59
2023/09/20 15:40:28;;;;;;;4.47;0.88;;;;;;;26.29;59.06;99553.06;8300014;28;20092;-60
2023/09/20 15:44:29;;;;;;;3.55;1.02;;;;;;;26.20;59.84;99543.56;8302467;28;20358;-61
2023/09/20 15:48:33;;;;;;;1.33;0.65;;;;;;;26.14;58.33;99516.09;8300296;28;20113;-61
2023/09/20 15:52:39;;;;;;;2.25;0.70;;;;;;;26.23;58.07;99526.41;8293960;28;20044;-60
2023/09/20 15:56:39;;;;;;;4.22;0.80;;;;;;;26.16;58.25;99520.25;8288572;28;20041;-61
2023/09/20 16:00:41;;;;;;;3.40;0.70;;;;;;;26.10;58.80;99520.50;8294612;28;20083;-61
2023/09/20 16:04:41;;;;;;;2.70;0.73;;;;;;;26.11;57.82;99517.47;8297949;28;20033;-64
2023/09/20 16:08:42;;;;;;;2.72;0.75;;;;;;;25.98;59.18;99517.91;8296466;28;20092;-61
2023/09/20 16:12:43;;;;;;;2.55;0.70;;;;;;;25.87;59.09;99512.50;8294552;28;20037;-61
2023/09/20 16:16:43;;;;;;;3.28;1.02;;;;;;;25.87;57.64;99512.50;8298949;28;20483;-61
2023/09/20 16:20:44;;;;;;;3.70;1.52;;;;;;;25.90;56.77;99521.16;8305201;28;20530;-64
2023/09/20 16:24:45;;;;;;;3.05;1.17;;;;;;;25.79;57.43;99513.84;8302902;28;20038;-66
2023/09/20 16:28:46;;;;;;;1.83;0.70;;;;;;;25.65;58.50;99512.63;8297688;28;20056;-65
2023/09/20 16:32:48;;;;;;;1.65;0.82;;;;;;;25.55;58.67;99511.69;8303296;28;20045;-63
2023/09/20 16:36:49;;;;;;;2.40;1.10;;;;;;;25.36;60.21;99513.97;8303404;28;20479;-64
2023/09/20 16:40:50;;;;;;;1.60;0.70;;;;;;;25.35;59.84;99512.31;8305514;28;20045;-61
2023/09/20 16:44:50;;;;;;;2.22;0.90;;;;;;;25.34;59.83;99510.59;8304822;28;20042;-61
2023/09/20 16:48:51;;;;;;;1.63;0.77;;;;;;;25.17;60.67;99512.63;8301980;28;20052;-61
2023/09/20 16:52:51;;;;;;;3.25;1.15;;;;;;;25.08;61.26;99500.34;8305040;28;20053;-64
2023/09/20 16:56:52;;;;;;;2.58;0.85;;;;;;;25.06;61.02;99502.50;8300077;28;20332;-64
2023/09/20 17:00:52;;;;;;;4.03;0.90;;;;;;;25.01;61.13;99499.72;8302906;28;20042;-65
2023/09/20 17:04:54;;;;;;;2.33;1.25;;;;;;;24.95;61.21;99503.50;8299112;28;20407;-65
2023/09/20 17:08:55;;;;;;;2.20;0.75;;;;;;;24.94;61.17;99501.81;8301398;28;20148;-65
2023/09/20 17:12:55;;;;;;;2.67;1.25;;;;;;;24.98;60.80;99503.00;8303902;28;20041;-61
2023/09/20 17:16:58;;;;;;;3.40;0.98;;;;;;;24.93;61.22;99494.63;8301114;28;20042;-59
2023/09/20 17:20:59;;;;;;;1.50;1.13;;;;;;;24.73;61.45;99488.84;8300605;28;20050;-62
2023/09/20 17:24:59;;;;;;;5.28;1.10;;;;;;;24.69;61.87;99487.66;8300646;28;20150;-60
2023/09/20 17:29:00;;;;;;;3.88;1.00;;;;;;;24.55;62.39;99489.13;8299549;28;20092;-59
2023/09/20 17:33:01;;;;;;;2.22;1.00;;;;;;;24.46;62.55;99474.06;8299859;28;20066;-61
2023/09/20 17:37:01;;;;;;;4.40;1.00;;;;;;;24.47;62.34;99470.22;8297564;28;20555;-61
2023/09/20 17:41:06;;;;;;;3.47;1.02;;;;;;;24.38;62.85;99456.00;8302612;28;20037;-60
2023/09/20 17:45:07;;;;;;;2.58;0.90;;;;;;;24.07;64.28;99469.63;8304563;28;20038;-60
2023/09/20 17:49:10;;;;;;;3.47;1.27;;;;;;;24.07;64.36;99461.34;8297356;28;20373;-59
2023/09/20 17:53:12;;;;;;;5.55;1.20;;;;;;;23.80;65.35;99457.56;8279419;28;20681;-60
2023/09/20 17:57:12;;;;;;;2.42;1.42;;;;;;;23.59;66.39;99461.06;8265202;28;20463;-59
2023/09/20 18:01:14;;;;;;;3.97;1.27;;;;;;;23.38;67.08;99464.56;8266795;28;20141;-61
2023/09/20 18:05:15;;;;;;;6.90;1.20;;;;;;;23.33;67.46;99461.72;8267764;28;20046;-60
2023/09/20 18:09:15;;;;;;;2.65;1.10;;;;;;;23.19;67.85;99456.50;8263781;28;20104;-60
2023/09/20 18:13:15;;;;;;;8.75;1.60;;;;;;;22.90;68.81;99454.81;8274840;28;20424;-60
2023/09/20 18:17:17;;;;;;;1.55;0.70;;;;;;;22.80;69.22;99446.34;8268619;28;20037;-59
2023/09/20 18:21:18;;;;;;;2.28;1.10;;;;;;;22.64;69.88;99452.66;8268262;28;20082;-59
2023/09/20 18:25:19;;;;;;;5.22;1.27;;;;;;;22.44;70.61;99446.66;8269824;28;20045;-60
2023/09/20 18:29:20;;;;;;;3.95;1.15;;;;;;;22.43;70.57;99453.25;8293473;28;20048;-61
2023/09/20 18:33:21;;;;;;;7.05;1.65;;;;;;;22.17;71.86;99453.75;8299468;28;20037;-60
2023/09/20 18:37:22;;;;;;;2.50;1.25;;;;;;;21.93;72.99;99471.41;8300455;28;20038;-60
2023/09/20 18:41:22;;;;;;;4.70;1.48;;;;;;;21.76;73.96;99469.56;8303024;28;20041;-59
2023/09/20 18:45:23;;;;;;;3.25;1.30;;;;;;;21.61;75.26;99482.91;8302020;28;20049;-60
2023/09/20 18:49:24;;;;;;;2.58;1.02;;;;;;;21.33;76.71;99491.84;8303872;28;20042;-59
2023/09/20 18:53:25;;;;;;;2.47;0.88;;;;;;;21.23;79.34;99497.88;8304889;28;20041;-60
2023/09/20 18:57:27;;;;;;;3.75;1.00;;;;;;;20.99;79.48;99500.78;8301041;28;20552;-60
2023/09/20 19:01:27;;;;;;;5.30;1.50;;;;;;;20.56;81.57;99491.81;8300884;28;20515;-65
2023/09/20 19:05:28;;;;;;;3.90;1.67;;;;;;;20.75;79.97;99494.31;8299932;28;20490;-65
2023/09/20 19:09:29;;;;;;;5.75;2.03;;;;;;;20.80;79.54;99499.94;8301979;28;21071;-64
2023/09/20 19:13:29;;;;;;;4.80;1.23;;;;;;;20.87;79.09;99502.59;8304380;28;20046;-63
2023/09/20 19:17:32;;;;;;;3.83;1.20;;;;;;;20.80;79.54;99501.88;8299869;28;20033;-63
2023/09/20 19:21:33;;;;;;;3.13;1.33;;;;;;;20.69;79.86;99505.38;8301857;28;20124;-59
2023/09/20 19:25:34;;;;;;;4.45;1.58;;;;;;;20.49;81.04;99505.59;8303131;28;20049;-59
2023/09/20 19:29:35;;;;;;;3.97;1.30;;;;;;;20.56;80.65;99500.88;8299075;28;20499;-60
2023/09/20 19:33:36;;;;;;;3.83;1.52;;;;;;;20.51;80.66;99503.47;8306152;28;20040;-59
2023/09/20 19:37:37;;;;;;;3.85;1.38;;;;;;;20.43;80.92;99502.94;8317920;28;20113;-60